• Join FlightAware (Why Join?)
  • Login
  • US Flag 
10:10PM EDT


 

Airport Tracker/Info


-or-


 

Live Flight TrackerFlight Track Log ✈ ASH2783 ✈ 22-Jul-2014 ✈ KCMH - KCLT

Flight Track Log - Related Links

Times and Time Zones

All times are in EDT time to prevent confusion due to time zone crossing. See the ASH2783 flight status page for this flight to view local times or setup timezone preferences in your user account.

Time Position Orientation Groundspeed Altitude Reporting Facility
EDT Latitude Longitude Course Direction KTS MPH feet Rate Location/Type
04:29PM 40.0033 -82.9183 179° South 151 174 1,400  Level Indianapolis Center
04:30PM 40.0119 -82.9853 280° West 188 216 3,700 1,920 Climbing Indianapolis Center
04:31PM 40.0003 -83.0683 260° West 235 270 5,500 2,400 Climbing Indianapolis Center
04:32PM 39.9400 -83.0556 171° South 284 327 8,000 3,000 Climbing Indianapolis Center
04:33PM 39.6483 -82.7412 169° South  Level Estimated
04:33PM 39.9281 -83.0464 150° Southeast 272 313 8,600  Level Indianapolis Center
04:34PM 39.5611 -82.7037 163° South  Level Estimated
04:34PM 39.8525 -82.9922 151° Southeast 298 343 10,000  Level Indianapolis Center
04:35PM 39.4692 -82.7010 179° South  Level FlightAware Approximate
04:35PM 39.7433 -82.9172 152° Southeast 360 414 13,000  Level Indianapolis Center
04:36PM 39.6531 -82.8539 152° Southeast 362 417 15,000 1,920 Climbing Indianapolis Center
04:37PM 39.5592 -82.7908 153° Southeast 370 426 17,000 1,800 Climbing Indianapolis Center
04:38PM 39.4550 -82.7494 163° South 385 443 18,800 1,680 Climbing Indianapolis Center
04:39PM 39.3444 -82.7261 171° South 395 455 20,500 1,560 Climbing Indianapolis Center
04:40PM 39.2300 -82.7022 171° South 404 465 22,100 1,200 Climbing Indianapolis Center
04:41PM 39.0908 -82.6722 171° South 416 479 23,000 420 Climbing Indianapolis Center
04:42PM 38.9739 -82.6489 171° South 423 487 23,000  Level Indianapolis Center
04:43PM 38.8575 -82.6244 171° South 423 487 23,000  Level Indianapolis Center
04:44PM 38.7436 -82.5992 170° South 422 486 23,000  Level Indianapolis Center
04:45PM 38.6222 -82.5750 171° South 414 476 23,000  Level Indianapolis Center
04:46PM 38.5092 -82.5500 170° South 413 475 23,000  Level Indianapolis Center
04:48PM 38.2847 -82.5050 171° South 410 472 23,000  Level Indianapolis Center
04:49PM 38.1619 -82.4778 170° South 410 472 23,000  Level Indianapolis Center
04:50PM 38.0408 -82.4528 171° South 409 471 23,000  Level Indianapolis Center
04:51PM 37.9253 -82.4308 171° South 413 475 23,000  Level Indianapolis Center
04:52PM 37.8064 -82.4050 170° South 424 488 23,000  Level Indianapolis Center
04:53PM 37.6858 -82.3800 171° South 431 496 23,000  Level Indianapolis Center
04:54PM 37.5428 -82.3519 171° South 438 504 23,000  Level Indianapolis Center
04:55PM 37.4192 -82.3258 170° South 442 509 23,000  Level Indianapolis Center
04:56PM 37.2958 -82.3014 171° South 442 509 23,000  Level Indianapolis Center
04:57PM 37.1722 -82.2758 171° South 443 510 23,000  Level Indianapolis Center
04:58PM 37.0483 -82.2508 171° South 443 510 23,000  Level Indianapolis Center
04:59PM 36.9261 -82.2264 171° South 444 511 23,000  Level Indianapolis Center
05:00PM 36.8119 -82.2042 171° South 422 486 23,000  Level Indianapolis Center
05:02PM 36.6775 -82.1767 171° South 417 480 23,000  Level Indianapolis Center
05:02PM 36.6111 -82.1636 171° South 424 488 23,000  Level Atlanta Center
05:03PM 36.4942 -82.1406 171° South 429 494 23,000  Level Atlanta Center
05:04PM 36.3808 -82.0969 163° South 429 494 23,000  Level Atlanta Center
05:05PM 36.2794 -82.0272 151° Southeast 424 488 23,000 -600 Level Atlanta Center
05:06PM 36.1931 -81.9675 151° Southeast 413 475 21,900 -1,800 Descending Atlanta Center
05:07PM 36.0939 -81.9033 152° Southeast 408 470 19,400 -2,400 Descending Atlanta Center
05:08PM 35.9925 -81.8367 152° Southeast 408 470 17,100 -2,160 Descending Atlanta Center
05:09PM 35.8978 -81.7778 153° Southeast 400 460 15,100 -2,040 Descending Atlanta Center
05:10PM 35.8111 -81.7214 152° Southeast 378 435 13,100 -2,160 Descending Atlanta Center
05:11PM 35.7497 -81.6794 151° Southeast 341 392 11,700 -1,860 Descending Atlanta Center
05:11PM 35.7119 -81.6578 155° Southeast 338 389 11,100 -540 Descending Atlanta Center
05:12PM 35.6483 -81.6161 152° Southeast 336 387 11,000 -60 Descending Atlanta Center
05:13PM 35.5847 -81.5542 142° Southeast 311 358 11,000 -360 Level Atlanta Center
05:14PM 35.5553 -81.4453 108° East 287 330 10,300 -1,080 Descending Atlanta Center
05:15PM 35.5283 -81.3619 112° Southeast 274 315 8,900 -1,500 Descending Atlanta Center
05:16PM 35.5014 -81.2683 109° East 279 321 7,400 -1,500 Descending Atlanta Center
05:16PM 35.4989 -81.2558 104° East 282 325 7,200 -1,620 Descending Atlanta Center
05:17PM 35.4825 -81.1772 104° East 279 321 5,800 -1,620 Descending Atlanta Center
05:17PM 35.4800 -81.1619 101° East 279 321 5,600 -840 Descending Atlanta Center
05:18PM 35.4636 -81.0886 105° East 279 321 5,000 -600 Descending Atlanta Center
05:18PM 35.4614 -81.0733 100° East 249 287 5,000 -120 Level Atlanta Center
05:19PM 35.4392 -81.0206 117° Southeast 249 287 4,900 -540 Descending Atlanta Center
05:19PM 35.4286 -81.0133 151° Southeast 206 237 4,500 -1,740 Descending Atlanta Center
05:20PM 35.3881 -80.9792 146° Southeast 214 246 3,200 -1,500 Descending Atlanta Center
05:20PM 35.3756 -80.9847 200° South 225 259 3,000 -360 Descending Atlanta Center
05:21PM 35.3317 -80.9786 174° South 162 186 2,800 -480 Descending Atlanta Center
05:22PM 35.2900 -80.9753 176° South 135 155 2,100 -840 Descending Atlanta Center
05:23PM 35.2419 -80.9719 177° South 150 173 1,100 -900 Descending Atlanta Center
05:25PM 35.2137 -80.9491 180° South  Level Estimated
05:32PM 35.2137 -80.9491 North  Level Estimated